Time;durP1;ratioP1;P1;durP2;ratioP2;P2;SDS_P1;SDS_P2;PMS_P1;PMS_P2;Temp;Humidity;BMP_temperature;BMP_pressure;BME280_temperature;BME280_humidity;BME280_pressure;Samples;Min_cycle;Max_cycle;Signal;HPM_P1;HPM_P2
2022/07/03 00:04:23;;;;;;;;;;;20.50;1.00;;;;;;10496526;27;83818;-54
2022/07/03 00:09:24;;;;;;;;;;;20.40;1.00;;;;;;10494018;27;83896;-52
2022/07/03 00:14:24;;;;;;;;;;;20.40;22.20;;;;;;10491671;27;83374;-48
2022/07/03 00:19:25;;;;;;;;;;;20.30;99.90;;;;;;10491198;27;83814;-49
2022/07/03 00:24:31;;;;;;;;;;;20.20;1.00;;;;;;10491904;27;83679;-47
2022/07/03 00:29:40;;;;;;;;;;;20.10;1.00;;;;;;10479645;27;84002;-47
2022/07/03 00:34:42;;;;;;;;;;;20.00;99.90;;;;;;10498029;27;83759;-51
2022/07/03 00:39:43;;;;;;;;;;;19.90;1.00;;;;;;10479527;27;83241;-49
2022/07/03 00:44:45;;;;;;;;;;;19.80;1.00;;;;;;10497594;27;83850;-48
2022/07/03 00:49:47;;;;;;;;;;;19.70;1.00;;;;;;10494908;27;84124;-49
2022/07/03 00:54:59;;;;;;;;;;;19.70;99.90;;;;;;10488557;27;83804;-49
2022/07/03 01:00:00;;;;;;;;;;;19.60;99.90;;;;;;10497875;27;83800;-49
2022/07/03 01:05:10;;;;;;;;;;;19.60;1.00;;;;;;10497284;27;83756;-46
2022/07/03 01:10:29;;;;;;;;;;;19.50;1.00;;;;;;10496364;27;84294;-45
2022/07/03 01:15:36;;;;;;;;;;;19.50;1.00;;;;;;10496840;27;83812;-47
2022/07/03 01:20:37;;;;;;;;;;;19.40;1.00;;;;;;10495972;27;84269;-51
2022/07/03 01:25:38;;;;;;;;;;;19.40;1.00;;;;;;10477926;27;86078;-49
2022/07/03 01:30:41;;;;;;;;;;;19.50;1.00;;;;;;10495416;27;84105;-50
2022/07/03 01:35:56;;;;;;;;;;;19.40;1.00;;;;;;10495542;27;83696;-49
2022/07/03 01:40:57;;;;;;;;;;;19.30;1.00;;;;;;10494021;27;86248;-49
2022/07/03 01:45:59;;;;;;;;;;;19.30;6.00;;;;;;10495801;27;84068;-47
2022/07/03 01:51:00;;;;;;;;;;;19.10;99.90;;;;;;10476537;27;85123;-47
2022/07/03 01:56:02;;;;;;;;;;;19.00;99.90;;;;;;10495072;27;83922;-47
2022/07/03 02:01:06;;;;;;;;;;;19.00;1.00;;;;;;10494537;27;84661;-47
2022/07/03 02:06:09;;;;;;;;;;;18.90;1.00;;;;;;10476108;27;83843;-48
2022/07/03 02:11:17;;;;;;;;;;;18.90;1.00;;;;;;10494285;27;84106;-49
2022/07/03 02:16:19;;;;;;;;;;;18.80;1.00;;;;;;10494089;27;83670;-46
2022/07/03 02:21:20;;;;;;;;;;;18.80;1.00;;;;;;10494050;27;84566;-47
2022/07/03 02:26:25;;;;;;;;;;;18.70;1.00;;;;;;10493839;27;83955;-49
2022/07/03 02:31:26;;;;;;;;;;;18.70;1.00;;;;;;10493548;27;83892;-50
2022/07/03 02:36:27;;;;;;;;;;;18.60;23.10;;;;;;10493495;27;83702;-52
2022/07/03 02:41:33;;;;;;;;;;;18.60;1.00;;;;;;10477640;27;86104;-48
2022/07/03 02:46:49;;;;;;;;;;;18.60;1.00;;;;;;10451668;27;84234;-47
2022/07/03 02:52:10;;;;;;;;;;;18.60;1.00;;;;;;10488336;27;85572;-47
2022/07/03 02:57:12;;;;;;;;;;;18.70;1.00;;;;;;10425185;22;84141;-47
2022/07/03 03:02:17;;;;;;;;;;;18.70;1.00;;;;;;10466529;27;84113;-48
2022/07/03 03:07:23;;;;;;;;;;;18.70;1.00;;;;;;10495424;27;84163;-48
2022/07/03 03:12:29;;;;;;;;;;;18.60;14.20;;;;;;10445376;28;85415;-51
2022/07/03 03:17:36;;;;;;;;;;;18.60;99.90;;;;;;10441008;28;83408;-49
2022/07/03 03:22:36;;;;;;;;;;;18.50;99.90;;;;;;10461011;27;83858;-50
2022/07/03 03:27:37;;;;;;;;;;;18.50;99.90;;;;;;10475877;27;85263;-50
2022/07/03 03:32:38;;;;;;;;;;;18.50;99.90;;;;;;10496264;27;84261;-51
2022/07/03 03:37:38;;;;;;;;;;;18.60;99.90;;;;;;10475030;27;85305;-51
2022/07/03 03:42:39;;;;;;;;;;;18.60;1.00;;;;;;10452622;28;83307;-49
2022/07/03 03:47:39;;;;;;;;;;;18.60;1.00;;;;;;10452066;28;83782;-48
2022/07/03 03:52:41;;;;;;;;;;;18.70;1.00;;;;;;10450918;27;84965;-50
2022/07/03 03:57:42;;;;;;;;;;;18.80;1.00;;;;;;10447820;28;85254;-47
2022/07/03 04:02:43;;;;;;;;;;;18.80;99.90;;;;;;10453602;28;84181;-50
2022/07/03 04:07:43;;;;;;;;;;;18.90;99.90;;;;;;10433406;28;83680;-52
2022/07/03 04:12:44;;;;;;;;;;;19.00;1.00;;;;;;10452266;27;84142;-50
2022/07/03 04:17:44;;;;;;;;;;;18.90;1.00;;;;;;10451643;28;83995;-48
2022/07/03 04:22:45;;;;;;;;;;;18.90;1.00;;;;;;10451881;28;84142;-51
2022/07/03 04:27:45;;;;;;;;;;;18.80;1.00;;;;;;10477018;27;84427;-48
2022/07/03 04:32:47;;;;;;;;;;;18.60;99.90;;;;;;10492951;27;83821;-49
2022/07/03 04:37:48;;;;;;;;;;;18.50;99.90;;;;;;10492770;27;83906;-47
2022/07/03 04:42:48;;;;;;;;;;;18.30;1.00;;;;;;10484050;27;83953;-49
2022/07/03 04:47:49;;;;;;;;;;;18.30;1.00;;;;;;10443387;28;86110;-48
2022/07/03 04:52:49;;;;;;;;;;;18.30;1.00;;;;;;10449842;27;83806;-48
2022/07/03 04:57:49;;;;;;;;;;;18.40;99.90;;;;;;10449788;28;84135;-48
2022/07/03 05:02:50;;;;;;;;;;;18.60;99.90;;;;;;10449483;28;96371;-53
2022/07/03 05:07:50;;;;;;;;;;;18.90;1.00;;;;;;10489622;27;84109;-50
2022/07/03 05:12:51;;;;;;;;;;;19.20;1.00;;;;;;10495907;27;83842;-51
2022/07/03 05:17:52;;;;;;;;;;;19.50;99.90;;;;;;10500017;27;84073;-51
2022/07/03 05:22:53;;;;;;;;;;;19.60;1.00;;;;;;10455098;28;84172;-48
2022/07/03 05:27:54;;;;;;;;;;;19.80;1.00;;;;;;10455885;28;84358;-52
2022/07/03 05:32:54;;;;;;;;;;;20.00;99.90;;;;;;10455457;28;84082;-50
2022/07/03 05:37:55;;;;;;;;;;;20.10;1.00;;;;;;10448802;27;84193;-50
2022/07/03 05:42:55;;;;;;;;;;;20.20;1.00;;;;;;10451927;27;84048;-51
2022/07/03 05:47:56;;;;;;;;;;;20.50;1.00;;;;;;10445739;27;83585;-53
2022/07/03 05:52:56;;;;;;;;;;;20.60;1.00;;;;;;10416042;28;84108;-54
2022/07/03 05:57:57;;;;;;;;;;;20.80;99.90;;;;;;10435889;27;84542;-54
2022/07/03 06:02:57;;;;;;;;;;;21.00;74.10;;;;;;10419646;27;86205;-54
2022/07/03 06:07:58;;;;;;;;;;;21.00;99.90;;;;;;10422454;28;83309;-52
2022/07/03 06:12:59;;;;;;;;;;;21.30;1.00;;;;;;10463857;27;84001;-49
2022/07/03 06:17:59;;;;;;;;;;;21.50;1.00;;;;;;10493312;27;83923;-50
2022/07/03 06:23:00;;;;;;;;;;;21.80;1.00;;;;;;10443441;27;83948;-52
2022/07/03 06:28:00;;;;;;;;;;;21.90;99.90;;;;;;10426371;27;83526;-59
2022/07/03 06:33:01;;;;;;;;;;;22.20;99.90;;;;;;10442124;27;84238;-59
2022/07/03 06:38:02;;;;;;;;;;;22.30;1.00;;;;;;10458575;27;83678;-60
2022/07/03 06:43:03;;;;;;;;;;;22.50;1.00;;;;;;10460346;27;83835;-61
2022/07/03 06:48:03;;;;;;;;;;;22.50;99.90;;;;;;10447010;27;83475;-57
2022/07/03 06:53:04;;;;;;;;;;;22.70;1.00;;;;;;10450656;27;83513;-63
2022/07/03 06:58:04;;;;;;;;;;;23.00;99.90;;;;;;10471124;27;83485;-60
2022/07/03 07:03:05;;;;;;;;;;;23.20;92.40;;;;;;10489385;27;83365;-60
2022/07/03 07:08:06;;;;;;;;;;;23.30;1.00;;;;;;10448184;27;84221;-59
2022/07/03 07:13:06;;;;;;;;;;;23.50;1.00;;;;;;10442100;27;83945;-60
2022/07/03 07:18:07;;;;;;;;;;;23.60;1.00;;;;;;10414203;27;85127;-54
2022/07/03 07:23:07;;;;;;;;;;;23.80;99.90;;;;;;10443460;27;83381;-52
2022/07/03 07:28:08;;;;;;;;;;;23.90;99.90;;;;;;10457293;27;84069;-51
2022/07/03 07:33:09;;;;;;;;;;;24.30;99.90;;;;;;10453510;27;84428;-53
2022/07/03 07:38:09;;;;;;;;;;;25.00;26.20;;;;;;10419994;27;84538;-52
2022/07/03 07:43:10;;;;;;;;;;;25.30;1.00;;;;;;10455258;28;84160;-54
2022/07/03 07:48:10;;;;;;;;;;;26.10;1.00;;;;;;10452040;28;84380;-55
2022/07/03 07:53:11;;;;;;;;;;;26.60;99.90;;;;;;10453308;27;83405;-55
2022/07/03 07:58:11;;;;;;;;;;;26.90;99.90;;;;;;10452492;27;84175;-50
2022/07/03 08:08:31;;;;;;;;;;;27.60;45.50;;;;;;10465386;27;83897;-52
2022/07/03 08:13:31;;;;;;;;;;;27.90;1.00;;;;;;10441211;28;83706;-54
2022/07/03 08:18:32;;;;;;;;;;;28.60;1.00;;;;;;10468146;27;83294;-51
2022/07/03 08:23:33;;;;;;;;;;;29.00;1.00;;;;;;10477399;27;83377;-50
2022/07/03 08:28:33;;;;;;;;;;;29.40;1.00;;;;;;10470610;27;83915;-51
2022/07/03 08:33:34;;;;;;;;;;;30.20;1.00;;;;;;10413896;28;83241;-54
2022/07/03 08:38:35;;;;;;;;;;;30.00;1.00;;;;;;10413004;28;84132;-53
2022/07/03 08:43:36;;;;;;;;;;;30.20;1.00;;;;;;10450325;27;84158;-51
2022/07/03 08:48:36;;;;;;;;;;;30.30;1.00;;;;;;10461043;27;83366;-54
2022/07/03 08:53:38;;;;;;;;;;;30.30;1.00;;;;;;10469549;27;83732;-52
2022/07/03 08:58:38;;;;;;;;;;;30.40;1.00;;;;;;10491631;22;84919;-50
2022/07/03 09:03:39;;;;;;;;;;;31.60;1.00;;;;;;10478863;27;84686;-46
2022/07/03 09:08:40;;;;;;;;;;;31.10;1.00;;;;;;10482191;27;84009;-46
2022/07/03 09:13:41;;;;;;;;;;;31.40;1.00;;;;;;10472629;27;84619;-48
2022/07/03 09:18:43;;;;;;;;;;;32.00;1.00;;;;;;10474913;27;83820;-46
2022/07/03 09:23:44;;;;;;;;;;;32.10;1.00;;;;;;10460787;27;85163;-46
2022/07/03 09:28:47;;;;;;;;;;;32.40;1.00;;;;;;10480454;27;84133;-48
2022/07/03 09:34:07;;;;;;;;;;;32.70;1.00;;;;;;10489631;27;83859;-44
2022/07/03 09:39:17;;;;;;;;;;;32.70;1.00;;;;;;10498054;27;84140;-50
2022/07/03 09:44:31;;;;;;;;;;;33.80;1.00;;;;;;10481426;27;83843;-58
2022/07/03 09:49:56;;;;;;;;;;;34.20;1.00;;;;;;10480362;27;83520;-53
2022/07/03 09:54:58;;;;;;;;;;;33.50;1.00;;;;;;10473162;27;83937;-58
2022/07/03 10:00:08;;;;;;;;;;;33.40;1.00;;;;;;10506277;27;85666;-55
2022/07/03 10:05:12;;;;;;;;;;;33.70;1.00;;;;;;10519721;27;83470;-51
2022/07/03 10:10:13;;;;;;;;;;;33.70;1.00;;;;;;10517224;27;83501;-55
2022/07/03 10:15:14;;;;;;;;;;;34.00;1.00;;;;;;10522448;27;86077;-58
2022/07/03 10:20:18;;;;;;;;;;;34.20;1.00;;;;;;10516904;27;84039;-55
2022/07/03 10:25:19;;;;;;;;;;;34.90;1.00;;;;;;10521571;27;84313;-55
2022/07/03 10:30:21;;;;;;;;;;;35.00;1.00;;;;;;10503889;27;83283;-57
2022/07/03 10:35:24;;;;;;;;;;;34.00;1.00;;;;;;10513545;27;84070;-56
2022/07/03 10:46:06;;;;;;;;;;;34.30;1.00;;;;;;10518112;27;83962;-61
2022/07/03 10:51:13;;;;;;;;;;;34.90;1.00;;;;;;10519198;27;84381;-57
2022/07/03 10:56:17;;;;;;;1.30;1.20;;;35.30;1.00;;;;;;10510972;27;84433;-62
2022/07/03 11:01:26;;;;;;;1.50;1.20;;;35.10;1.00;;;;;;10516731;27;83486;-61
2022/07/03 11:06:47;;;;;;;;;;;35.80;1.00;;;;;;10519163;27;83627;-59
2022/07/03 11:11:54;;;;;;;;;;;36.00;1.00;;;;;;10484919;27;83994;-59
2022/07/03 11:17:13;;;;;;;;;;;34.10;1.00;;;;;;10490672;27;84159;-57
2022/07/03 11:22:19;;;;;;;;;;;33.10;1.00;;;;;;10493261;27;83427;-57
2022/07/03 11:27:22;;;;;;;;;;;32.80;1.00;;;;;;10475748;27;83935;-57
2022/07/03 11:32:42;;;;;;;;;;;34.00;1.00;;;;;;10492373;27;83818;-56
2022/07/03 11:37:45;;;;;;;3.30;1.30;;;35.00;1.00;;;;;;10491850;27;84672;-54
2022/07/03 11:42:46;;;;;;;;;;;34.90;1.00;;;;;;10488172;27;84225;-47
2022/07/03 11:47:46;;;;;;;;;;;34.30;1.00;;;;;;10480863;27;83922;-50
2022/07/03 11:52:47;;;;;;;;;;;34.60;1.00;;;;;;10478751;27;83927;-51
2022/07/03 11:57:52;;;;;;;;;;;34.50;1.00;;;;;;10485080;27;84180;-49
2022/07/03 12:02:53;;;;;;;;;;;34.60;1.00;;;;;;10486374;27;84285;-49
2022/07/03 12:08:03;;;;;;;;;;;33.50;1.00;;;;;;10486569;27;84067;-52
2022/07/03 12:13:04;;;;;;;;;;;31.80;1.00;;;;;;10475735;27;84460;-51
2022/07/03 12:18:05;;;;;;;;;;;30.60;1.00;;;;;;10480885;27;83645;-55
2022/07/03 12:23:05;;;;;;;;;;;30.00;1.00;;;;;;10485533;27;84130;-51
2022/07/03 12:28:08;;;;;;;;;;;29.90;1.00;;;;;;10483004;27;84138;-53
2022/07/03 12:33:08;;;;;;;;;;;31.20;1.00;;;;;;10481788;27;84673;-50
2022/07/03 12:38:09;;;;;;;;;;;32.30;1.00;;;;;;10495427;27;85971;-49
2022/07/03 12:43:09;;;;;;;;;;;34.20;1.00;;;;;;10495720;27;85124;-46
2022/07/03 12:48:10;;;;;;;;;;;34.60;1.00;;;;;;10492984;27;84817;-51
2022/07/03 12:53:11;;;;;;;;;;;34.70;1.00;;;;;;10483963;27;84197;-50
2022/07/03 13:03:31;;;;;;;;;;;34.30;1.00;;;;;;10470822;27;83775;-49
2022/07/03 13:08:32;;;;;;;;;;;33.70;1.00;;;;;;10475060;27;84258;-51
2022/07/03 13:13:46;;;;;;;;;;;33.70;1.00;;;;;;10482178;27;84165;-51
2022/07/03 13:19:00;;;;;;;;;;;33.40;1.00;;;;;;10485516;27;84108;-52
2022/07/03 13:24:01;;;;;;;2.40;0.90;;;33.10;1.00;;;;;;10492174;27;85235;-55
2022/07/03 13:29:02;;;;;;;1.40;0.90;;;33.80;1.00;;;;;;10467137;27;86019;-49
2022/07/03 13:34:03;;;;;;;1.00;0.80;;;34.50;1.00;;;;;;10486527;27;85136;-49
2022/07/03 13:39:04;;;;;;;1.60;1.00;;;35.00;1.00;;;;;;10480300;27;83800;-48
2022/07/03 13:44:05;;;;;;;;;;;34.40;1.00;;;;;;10469080;27;85131;-48
2022/07/03 13:49:05;;;;;;;;;;;32.90;1.00;;;;;;10467537;27;86205;-53
2022/07/03 13:54:06;;;;;;;;;;;32.60;1.00;;;;;;10475208;27;84209;-52
2022/07/03 13:59:06;;;;;;;;;;;32.40;1.00;;;;;;10473090;27;83316;-51
2022/07/03 14:04:07;;;;;;;;;;;31.70;1.00;;;;;;10474652;27;85413;-50
2022/07/03 14:09:07;;;;;;;;;;;31.40;1.00;;;;;;10466977;27;84176;-53
2022/07/03 14:14:08;;;;;;;;;;;31.00;1.00;;;;;;10467531;27;83480;-50
2022/07/03 14:19:08;;;;;;;;;;;30.70;1.00;;;;;;10474671;27;83936;-53
2022/07/03 14:24:09;;;;;;;;;;;29.80;1.00;;;;;;10462664;27;83392;-53
2022/07/03 14:34:28;;;;;;;;;;;29.40;1.00;;;;;;10461532;27;83882;-53
2022/07/03 14:39:29;;;;;;;;;;;29.30;1.00;;;;;;10463237;27;83725;-52
2022/07/03 14:44:30;;;;;;;;;;;29.10;1.00;;;;;;10456536;27;86090;-50
2022/07/03 14:49:30;;;;;;;;;;;28.70;1.00;;;;;;10474749;27;83977;-51
2022/07/03 14:54:31;;;;;;;;;;;28.50;1.00;;;;;;10485257;27;84088;-49
2022/07/03 14:59:35;;;;;;;;;;;28.40;1.00;;;;;;10490235;27;83981;-51
2022/07/03 15:04:35;;;;;;;;;;;28.20;1.00;;;;;;10470919;27;83225;-48
2022/07/03 15:09:37;;;;;;;;;;;28.00;1.00;;;;;;10464527;27;84184;-46
2022/07/03 15:14:44;;;;;;;;;;;28.00;1.00;;;;;;10460328;27;84520;-50
2022/07/03 15:19:47;;;;;;;;;;;28.10;1.00;;;;;;10457574;27;84623;-53
2022/07/03 15:24:48;;;;;;;;;;;28.00;1.00;;;;;;10458602;27;84903;-50
2022/07/03 15:29:49;;;;;;;;;;;27.80;1.00;;;;;;10483803;27;83860;-49
2022/07/03 15:34:49;;;;;;;;;;;27.50;1.00;;;;;;10462061;27;83830;-48
2022/07/03 15:39:59;;;;;;;;;;;27.00;1.00;;;;;;10472730;27;84055;-53
2022/07/03 15:45:07;;;;;;;;;;;26.60;1.00;;;;;;10470304;27;84057;-50
2022/07/03 15:50:08;;;;;;;;;;;26.50;1.00;;;;;;10473489;27;84839;-48
2022/07/03 15:55:09;;;;;;;;;;;26.70;1.00;;;;;;10493890;27;83935;-49
2022/07/03 16:00:11;;;;;;;;;;;26.60;1.00;;;;;;10494051;27;83777;-54
2022/07/03 16:05:16;;;;;;;;;;;26.40;1.00;;;;;;10495591;27;84386;-50
2022/07/03 16:10:19;;;;;;;;;;;26.40;1.00;;;;;;10493332;27;104904;-51
2022/07/03 16:15:20;;;;;;;;;;;26.50;1.00;;;;;;10494650;27;85900;-49
2022/07/03 16:20:21;;;;;;;;;;;26.30;1.00;;;;;;10495068;27;84019;-47
2022/07/03 16:25:23;;;;;;;;;;;26.10;1.00;;;;;;10497037;27;84309;-48
2022/07/03 16:30:24;;;;;;;;;;;26.10;1.00;;;;;;10499386;27;84311;-49
2022/07/03 16:35:36;;;;;;;;;;;25.90;1.00;;;;;;10505183;22;83814;-52
2022/07/03 16:40:37;;;;;;;;;;;25.80;1.00;;;;;;10452049;28;84021;-55
2022/07/03 16:45:40;;;;;;;;;;;25.50;1.00;;;;;;10450318;28;84225;-53
2022/07/03 16:50:52;;;;;;;;;;;25.40;1.00;;;;;;10451828;28;84112;-53
2022/07/03 16:55:53;;;;;;;;;;;25.10;1.00;;;;;;10450517;28;83321;-55
2022/07/03 17:00:55;;;;;;;;;;;24.80;1.00;;;;;;10450944;28;83382;-52
2022/07/03 17:05:55;;;;;;;;;;;24.60;1.00;;;;;;10431154;27;84234;-51
2022/07/03 17:10:56;;;;;;;;;;;24.60;1.00;;;;;;10456163;28;83357;-51
2022/07/03 17:15:59;;;;;;;;;;;24.60;1.00;;;;;;10456487;27;83322;-52
2022/07/03 17:21:03;;;;;;;;;;;24.70;1.00;;;;;;10437935;28;84203;-54
2022/07/03 17:26:05;;;;;;;;;;;24.50;1.00;;;;;;10456004;27;84287;-55
2022/07/03 17:31:11;;;;;;;;;;;24.40;1.00;;;;;;10456082;28;83413;-53
2022/07/03 17:36:20;;;;;;;;;;;24.30;1.00;;;;;;10455518;28;83959;-53
2022/07/03 17:41:25;;;;;;;;;;;24.20;1.00;;;;;;10455311;28;84168;-54
2022/07/03 17:46:28;;;;;;;;;;;24.20;1.00;;;;;;10454963;27;84269;-56
2022/07/03 17:51:29;;;;;;;;;;;24.10;10.30;;;;;;10456777;28;84052;-56
2022/07/03 17:56:30;;;;;;;;;;;23.90;99.90;;;;;;10455746;27;84044;-55
2022/07/03 18:01:33;;;;;;;;;;;23.80;99.90;;;;;;10456160;28;83232;-52
2022/07/03 18:06:34;;;;;;;;;;;23.50;99.90;;;;;;10440400;27;86528;-58
2022/07/03 18:11:46;;;;;;;;;;;23.40;99.90;;;;;;10438212;28;83304;-56
2022/07/03 18:16:49;;;;;;;;;;;23.10;99.90;;;;;;10400561;28;84325;-57
2022/07/03 18:21:50;;;;;;;;;;;23.00;1.00;;;;;;10455085;28;83462;-56
2022/07/03 18:26:56;;;;;;;;;;;22.90;1.00;;;;;;10443192;28;83360;-56
2022/07/03 18:31:57;;;;;;;;;;;22.90;1.00;;;;;;10457560;28;83381;-52
2022/07/03 18:36:58;;;;;;;;;;;22.90;1.00;;;;;;10445212;28;83377;-54
2022/07/03 18:41:59;;;;;;;;;;;22.90;1.00;;;;;;10442537;28;84054;-53
2022/07/03 18:46:59;;;;;;;;;;;22.80;1.00;;;;;;10449983;27;84137;-54
2022/07/03 18:52:02;;;;;;;;;;;22.70;99.90;;;;;;10435927;28;84141;-52
2022/07/03 18:57:10;;;;;;;;;;;22.50;1.00;;;;;;10445922;28;83470;-54
2022/07/03 19:02:15;;;;;;;;;;;22.40;1.00;;;;;;10440100;28;84082;-57
2022/07/03 19:07:24;;;;;;;;;;;22.30;99.90;;;;;;10449589;28;83552;-54
2022/07/03 19:12:29;;;;;;;;;;;22.20;1.00;;;;;;10448650;28;83663;-53
2022/07/03 19:17:32;;;;;;;;;;;22.00;99.90;;;;;;10441347;27;83600;-55
2022/07/03 19:22:32;;;;;;;;;;;21.90;99.90;;;;;;10443829;28;83517;-52
2022/07/03 19:27:33;;;;;;;;;;;21.70;99.90;;;;;;10443907;28;84169;-49
2022/07/03 19:32:33;;;;;;;;;;;21.70;99.90;;;;;;10448814;27;83731;-52
2022/07/03 19:37:34;;;;;;;;;;;21.60;1.00;;;;;;10450549;27;85891;-48
2022/07/03 19:42:39;;;;;;;;;;;21.60;99.90;;;;;;10449238;28;84113;-56
2022/07/03 19:47:39;;;;;;;;;;;21.50;99.90;;;;;;10446717;27;83151;-52
2022/07/03 19:52:40;;;;;;;;;;;21.10;1.00;;;;;;10443448;28;84055;-51
2022/07/03 19:57:41;;;;;;;;;;;20.90;1.00;;;;;;10441532;28;84506;-48
2022/07/03 20:02:41;;;;;;;;;;;20.70;99.90;;;;;;10442195;28;84075;-49
2022/07/03 20:07:42;;;;;;;;;;;20.60;99.90;;;;;;10444319;27;84248;-51
2022/07/03 20:12:42;;;;;;;;;;;20.50;1.00;;;;;;10449773;28;85707;-53
2022/07/03 20:17:43;;;;;;;;;;;20.40;1.00;;;;;;10445974;28;83516;-54
2022/07/03 20:22:44;;;;;;;;;;;20.40;1.00;;;;;;10446014;28;83522;-55
2022/07/03 20:27:44;;;;;;;;;;;20.40;1.00;;;;;;10440189;28;84966;-54
2022/07/03 20:32:45;;;;;;;;;;;20.10;1.00;;;;;;10436696;28;84830;-52
2022/07/03 20:37:45;;;;;;;;;;;20.00;92.60;;;;;;10439816;28;85449;-54
2022/07/03 20:42:46;;;;;;;;;;;19.90;99.90;;;;;;10440337;27;83440;-53
2022/07/03 20:47:46;;;;;;;;;;;19.90;99.90;;;;;;10445424;27;84214;-52
2022/07/03 20:52:48;;;;;;;;;;;19.80;99.90;;;;;;10440702;28;85412;-51
2022/07/03 20:57:49;;;;;;;;;;;19.80;99.90;;;;;;10452687;28;84142;-52
2022/07/03 21:02:49;;;;;;;;;;;19.80;1.00;;;;;;10453346;28;84166;-54
2022/07/03 21:07:50;;;;;;;;;;;19.70;1.00;;;;;;10433167;27;83475;-49
2022/07/03 21:12:51;;;;;;;;;;;19.60;1.00;;;;;;10431796;28;84636;-49
2022/07/03 21:17:51;;;;;;;;;;;19.60;1.00;;;;;;10417754;28;83747;-51
2022/07/03 21:22:52;;;;;;;;;;;19.50;1.00;;;;;;10449062;28;84174;-49
2022/07/03 21:27:53;;;;;;;;;;;19.50;1.00;;;;;;10410444;28;84110;-54
2022/07/03 21:32:53;;;;;;;;;;;19.40;1.00;;;;;;10449529;28;83882;-50
2022/07/03 21:37:54;;;;;;;;;;;19.40;1.00;;;;;;10433944;28;84308;-53
2022/07/03 21:42:54;;;;;;;;;;;19.30;1.00;;;;;;10432276;28;83485;-53
2022/07/03 21:47:56;;;;;;;;;;;19.20;1.00;;;;;;10443995;28;84009;-49
2022/07/03 21:52:57;;;;;;;;;;;19.10;1.00;;;;;;10448208;28;84085;-54
2022/07/03 21:57:58;;;;;;;;;;;19.10;1.00;;;;;;10440146;28;83472;-53
2022/07/03 22:02:58;;;;;;;;;;;19.10;1.00;;;;;;10439100;28;83460;-53
2022/07/03 22:08:00;;;;;;;;;;;19.00;1.00;;;;;;10451548;27;84070;-53
2022/07/03 22:13:00;;;;;;;;;;;19.00;1.00;;;;;;10428053;28;84102;-56
2022/07/03 22:18:01;;;;;;;;;;;18.90;1.00;;;;;;10435592;28;84118;-53
2022/07/03 22:23:02;;;;;;;;;;;18.90;1.00;;;;;;10456718;28;84002;-50
2022/07/03 22:28:02;;;;;;;;;;;18.90;1.00;;;;;;10454973;28;83805;-51
2022/07/03 22:33:03;;;;;;;;;;;18.90;1.00;;;;;;10455470;28;83499;-51
2022/07/03 22:38:03;;;;;;;;;;;18.80;1.00;;;;;;10525837;22;83349;-50
2022/07/03 22:43:04;;;;;;;;;;;18.80;1.00;;;;;;10536519;27;84199;-50
2022/07/03 22:48:05;;;;;;;;;;;18.70;99.90;;;;;;10537679;27;84213;-48
2022/07/03 22:53:06;;;;;;;;;;;18.60;99.90;;;;;;10538041;27;83824;-50
2022/07/03 22:58:07;;;;;;;;;;;18.70;99.90;;;;;;10537131;27;83632;-48
2022/07/03 23:03:07;;;;;;;;;;;18.70;99.90;;;;;;10510010;27;84149;-51
2022/07/03 23:08:08;;;;;;;;;;;18.70;99.90;;;;;;10474370;27;85812;-51
2022/07/03 23:13:08;;;;;;;;;;;18.60;99.90;;;;;;10494159;27;83950;-51
2022/07/03 23:18:09;;;;;;;;;;;18.60;99.90;;;;;;10493939;27;83476;-48
2022/07/03 23:23:10;;;;;;;;;;;18.50;1.00;;;;;;10493526;27;84111;-51
2022/07/03 23:28:10;;;;;;;;;;;18.40;1.00;;;;;;10493099;27;83394;-49
2022/07/03 23:33:11;;;;;;;;;;;18.30;1.00;;;;;;10493900;27;83698;-48
2022/07/03 23:38:12;;;;;;;;;;;18.20;1.00;;;;;;10491753;27;83797;-47
2022/07/03 23:43:12;;;;;;;;;;;18.20;1.00;;;;;;10493365;27;83680;-47
2022/07/03 23:53:32;;;;;;;;;;;18.10;1.00;;;;;;10493342;27;84016;-47
2022/07/03 23:58:33;;;;;;;;;;;17.90;1.00;;;;;;10492369;27;83954;-49
